createdAt,value
2022-12-19T00:01:33.894Z,3.90
2022-12-19T00:04:08.321Z,3.70
2022-12-19T00:06:37.260Z,4.20
2022-12-19T00:09:05.183Z,4.00
2022-12-19T00:11:32.702Z,4.70
2022-12-19T00:14:00.235Z,4.90
2022-12-19T00:16:29.156Z,5.20
2022-12-19T00:18:59.039Z,5.90
2022-12-19T00:21:28.068Z,6.30
2022-12-19T00:23:54.960Z,6.40
2022-12-19T00:26:24.303Z,6.80
2022-12-19T00:28:54.338Z,7.00
2022-12-19T00:31:22.094Z,6.80
2022-12-19T00:33:49.464Z,7.30
2022-12-19T00:36:26.888Z,7.40
2022-12-19T00:38:55.431Z,7.30
2022-12-19T00:41:30.638Z,8.10
2022-12-19T00:44:09.871Z,8.10
2022-12-19T00:46:36.692Z,8.10
2022-12-19T00:49:04.197Z,8.30
2022-12-19T00:51:32.767Z,8.30
2022-12-19T00:53:59.829Z,8.20
2022-12-19T00:56:29.438Z,8.10
2022-12-19T00:58:56.437Z,7.90
2022-12-19T01:01:27.639Z,8.00
2022-12-19T01:04:26.587Z,7.90
2022-12-19T01:06:41.615Z,8.00
2022-12-19T01:09:09.548Z,8.00
2022-12-19T01:11:54.967Z,7.80
2022-12-19T01:14:23.243Z,7.40
2022-12-19T01:16:51.102Z,6.70
2022-12-19T01:19:17.920Z,5.60
2022-12-19T01:21:44.593Z,5.90
2022-12-19T01:24:11.445Z,6.00
2022-12-19T01:26:38.161Z,5.80
2022-12-19T01:29:05.124Z,5.80
2022-12-19T01:31:33.504Z,5.40
2022-12-19T01:34:00.864Z,4.70
2022-12-19T01:36:28.449Z,4.30
2022-12-19T01:38:57.595Z,4.80
2022-12-19T01:41:24.442Z,4.80
2022-12-19T01:43:57.026Z,5.30
2022-12-19T01:46:50.274Z,5.60
2022-12-19T01:49:27.735Z,6.00
2022-12-19T01:51:56.956Z,6.30
2022-12-19T01:54:28.477Z,6.50
2022-12-19T01:56:57.771Z,6.70
2022-12-19T01:59:57.519Z,6.20
2022-12-19T02:02:53.074Z,6.20
2022-12-19T02:05:20.031Z,5.90
2022-12-19T02:07:46.747Z,5.20
2022-12-19T02:10:13.450Z,5.70
2022-12-19T02:12:41.838Z,5.10
2022-12-19T02:15:09.597Z,5.10
2022-12-19T02:17:43.830Z,5.90
2022-12-19T02:20:31.654Z,6.00
2022-12-19T02:23:17.015Z,5.60
2022-12-19T02:25:46.732Z,6.20
2022-12-19T02:28:33.588Z,6.80
2022-12-19T02:31:05.676Z,6.20
2022-12-19T02:33:52.310Z,6.70
2022-12-19T02:36:29.122Z,7.10
2022-12-19T02:39:16.219Z,7.50
2022-12-19T02:42:15.497Z,7.50
2022-12-19T02:45:01.343Z,7.70
2022-12-19T02:47:37.362Z,7.90
2022-12-19T02:50:24.225Z,7.90
2022-12-19T02:53:04.154Z,7.80
2022-12-19T02:56:12.354Z,8.20
2022-12-19T02:59:57.512Z,8.00
2022-12-19T03:03:01.262Z,8.20
2022-12-19T03:09:07.581Z,8.20
2022-12-19T03:11:38.605Z,8.20
2022-12-19T03:17:39.498Z,8.60
2022-12-19T03:21:05.780Z,8.60
2022-12-19T03:23:47.443Z,8.60
2022-12-19T03:26:25.030Z,8.50
2022-12-19T03:28:59.811Z,8.60
2022-12-19T03:31:32.641Z,8.50
2022-12-19T03:34:10.379Z,8.70
2022-12-19T03:36:45.380Z,8.80
2022-12-19T03:39:13.004Z,8.80
2022-12-19T03:42:01.231Z,8.70
2022-12-19T03:44:32.065Z,9.10
2022-12-19T03:47:13.612Z,8.80
2022-12-19T03:49:40.348Z,9.00
2022-12-19T03:52:22.156Z,8.80
2022-12-19T03:55:02.451Z,9.00
2022-12-19T03:57:35.853Z,9.00
2022-12-19T04:00:08.436Z,9.20
2022-12-19T04:02:37.473Z,9.20
2022-12-19T04:05:07.944Z,9.00
2022-12-19T04:07:37.021Z,9.10
2022-12-19T04:10:10.235Z,9.00
2022-12-19T04:12:41.139Z,9.10
2022-12-19T04:15:08.826Z,9.10
2022-12-19T04:17:48.869Z,9.40
2022-12-19T04:20:18.272Z,9.40
2022-12-19T04:22:55.771Z,9.50
2022-12-19T04:25:29.653Z,9.40
2022-12-19T04:28:06.529Z,9.20
2022-12-19T04:30:36.587Z,9.80
2022-12-19T04:33:04.184Z,9.50
2022-12-19T04:35:30.947Z,9.70
2022-12-19T04:37:57.639Z,9.50
2022-12-19T04:40:24.303Z,9.60
2022-12-19T04:42:53.345Z,10.00
2022-12-19T04:45:31.100Z,9.90
2022-12-19T04:48:06.107Z,10.00
2022-12-19T04:50:39.092Z,10.00
2022-12-19T04:53:18.450Z,10.30
2022-12-19T04:55:47.547Z,10.30
2022-12-19T04:58:18.904Z,10.30
2022-12-19T05:00:47.448Z,10.20
2022-12-19T05:03:14.438Z,10.20
2022-12-19T05:05:41.191Z,9.90
2022-12-19T05:08:08.229Z,9.90
2022-12-19T05:10:36.476Z,10.10
2022-12-19T05:13:03.348Z,9.70
2022-12-19T05:15:30.008Z,9.20
2022-12-19T05:17:57.455Z,8.40
2022-12-19T05:20:24.116Z,8.70
2022-12-19T05:22:50.832Z,8.60
2022-12-19T05:25:17.537Z,9.00
2022-12-19T05:27:44.251Z,9.20
2022-12-19T05:30:11.500Z,9.00
2022-12-19T05:32:38.187Z,9.30
2022-12-19T05:35:05.291Z,9.50
2022-12-19T05:37:32.077Z,9.40
2022-12-19T05:39:59.783Z,9.60
2022-12-19T05:42:26.619Z,9.80
2022-12-19T05:44:53.318Z,9.90
2022-12-19T05:47:20.376Z,9.80
2022-12-19T05:49:47.084Z,10.00
2022-12-19T05:52:13.805Z,10.10
2022-12-19T05:54:40.511Z,9.90
2022-12-19T05:57:07.219Z,10.00
2022-12-19T05:59:33.917Z,10.30
2022-12-19T06:02:00.722Z,10.30
2022-12-19T06:04:29.617Z,10.50
2022-12-19T06:06:56.370Z,10.40
2022-12-19T06:09:23.168Z,10.40
2022-12-19T06:11:51.065Z,10.80
2022-12-19T06:14:17.743Z,10.80
2022-12-19T06:16:44.448Z,10.80
2022-12-19T06:19:11.264Z,10.70
2022-12-19T06:21:45.413Z,10.70
2022-12-19T06:24:14.879Z,10.50
2022-12-19T06:26:41.581Z,10.70
2022-12-19T06:29:08.284Z,10.60
2022-12-19T06:31:34.981Z,10.60
2022-12-19T06:34:02.360Z,10.60
2022-12-19T06:36:30.554Z,10.90
2022-12-19T06:38:58.053Z,10.60
2022-12-19T06:41:43.908Z,10.50
2022-12-19T06:44:12.592Z,11.00
2022-12-19T06:46:40.333Z,10.80
2022-12-19T06:49:07.746Z,10.70
2022-12-19T06:51:34.480Z,10.90
2022-12-19T06:54:01.155Z,10.80
2022-12-19T06:56:28.162Z,10.90
2022-12-19T06:58:54.959Z,10.90
2022-12-19T07:01:45.492Z,10.70
2022-12-19T07:04:16.526Z,11.10
2022-12-19T07:06:48.748Z,11.20
2022-12-19T07:09:15.869Z,11.10
2022-12-19T07:11:42.544Z,10.90
2022-12-19T07:14:09.206Z,10.90
2022-12-19T07:16:37.701Z,11.00
2022-12-19T07:19:04.902Z,11.30
2022-12-19T07:21:31.574Z,11.30
2022-12-19T07:23:59.082Z,11.50
2022-12-19T07:26:25.782Z,11.50
2022-12-19T07:28:53.387Z,11.30
2022-12-19T07:31:20.050Z,11.60
2022-12-19T07:33:46.723Z,11.60
2022-12-19T07:36:13.377Z,11.60
2022-12-19T07:38:40.052Z,11.60
2022-12-19T07:41:06.742Z,11.90
2022-12-19T07:43:33.414Z,11.60
2022-12-19T07:46:00.144Z,11.40
2022-12-19T07:48:28.723Z,11.10
2022-12-19T07:50:55.385Z,11.00
2022-12-19T07:53:22.054Z,11.10
2022-12-19T07:55:52.370Z,10.90
2022-12-19T07:58:19.444Z,11.10
2022-12-19T08:00:46.192Z,11.10
2022-12-19T08:03:12.962Z,11.00
2022-12-19T08:05:39.629Z,11.20
2022-12-19T08:08:06.287Z,11.30
2022-12-19T08:10:32.957Z,11.10
2022-12-19T08:12:59.629Z,11.50
2022-12-19T08:15:26.288Z,11.40
2022-12-19T08:17:54.282Z,11.40
2022-12-19T08:20:21.373Z,11.30
2022-12-19T08:22:48.136Z,11.50
2022-12-19T08:25:14.815Z,11.50
2022-12-19T08:27:42.709Z,11.10
2022-12-19T08:30:09.911Z,10.70
2022-12-19T08:32:36.554Z,10.70
2022-12-19T08:35:03.324Z,10.70
2022-12-19T08:37:30.078Z,10.80
2022-12-19T08:39:56.752Z,11.20
2022-12-19T08:42:23.412Z,11.30
2022-12-19T08:44:50.075Z,10.80
2022-12-19T08:47:16.751Z,10.80
2022-12-19T08:49:43.412Z,11.10
2022-12-19T08:52:10.131Z,10.80
2022-12-19T08:54:36.861Z,11.30
2022-12-19T08:57:03.611Z,11.30
2022-12-19T08:59:31.951Z,11.60
2022-12-19T09:02:02.143Z,11.80
2022-12-19T09:06:00.333Z,11.80
2022-12-19T09:07:16.426Z,12.10
2022-12-19T09:09:44.476Z,11.80
2022-12-19T09:12:12.957Z,11.90
2022-12-19T09:14:39.669Z,12.40
2022-12-19T09:17:06.362Z,11.80
2022-12-19T09:19:33.141Z,11.90
2022-12-19T09:21:59.912Z,12.30
2022-12-19T09:24:26.672Z,12.10
2022-12-19T09:26:53.351Z,11.60
2022-12-19T09:29:21.749Z,11.70
2022-12-19T09:31:55.975Z,11.90
2022-12-19T09:34:36.929Z,11.60
2022-12-19T09:37:07.024Z,11.60
2022-12-19T09:39:34.984Z,11.70
2022-12-19T09:42:15.260Z,11.90
2022-12-19T09:45:19.477Z,12.00
2022-12-19T09:47:55.877Z,12.20
2022-12-19T09:50:47.298Z,11.60
2022-12-19T09:53:19.943Z,11.90
2022-12-19T09:55:47.575Z,11.60
2022-12-19T09:58:29.272Z,11.80
2022-12-19T10:00:59.750Z,12.10
2022-12-19T10:03:40.934Z,12.00
2022-12-19T10:07:09.487Z,12.00
2022-12-19T10:09:22.323Z,11.50
2022-12-19T10:12:44.230Z,12.30
2022-12-19T10:15:04.225Z,12.30
2022-12-19T10:17:43.046Z,12.30
2022-12-19T10:20:29.722Z,12.20
2022-12-19T10:23:20.693Z,12.20
2022-12-19T10:25:52.541Z,12.40
2022-12-19T10:29:02.269Z,12.80
2022-12-19T10:31:53.483Z,12.70
2022-12-19T10:34:22.939Z,12.80
2022-12-19T10:39:55.047Z,13.00
2022-12-19T10:42:40.026Z,12.90
2022-12-19T10:45:14.429Z,12.60
2022-12-19T10:47:42.366Z,12.80
2022-12-19T10:50:13.735Z,12.70
2022-12-19T10:52:52.776Z,13.10
2022-12-19T10:55:45.513Z,13.10
2022-12-19T10:58:36.183Z,13.00
2022-12-19T11:01:29.360Z,13.00
2022-12-19T11:04:21.580Z,13.40
2022-12-19T11:07:18.798Z,13.20
2022-12-19T11:10:18.506Z,13.60
2022-12-19T11:16:47.280Z,13.60
2022-12-19T11:20:18.232Z,13.40
2022-12-19T11:29:17.027Z,13.30
2022-12-19T11:29:44.094Z,13.20
2022-12-19T11:30:21.353Z,13.10
2022-12-19T11:34:49.707Z,13.60
2022-12-19T11:40:56.527Z,13.50
2022-12-19T11:43:43.607Z,13.10
2022-12-19T11:46:22.453Z,13.50
2022-12-19T11:49:30.450Z,13.20
2022-12-19T11:52:54.299Z,13.00
2022-12-19T11:55:10.611Z,13.60
2022-12-19T11:57:38.619Z,12.70
2022-12-19T12:00:06.127Z,12.50
2022-12-19T12:02:38.973Z,12.50
2022-12-19T12:05:16.404Z,12.90
2022-12-19T12:08:54.321Z,12.60
2022-12-19T12:14:57.155Z,12.40
2022-12-19T12:20:04.385Z,12.20
2022-12-19T12:28:42.803Z,12.50
2022-12-19T12:31:02.724Z,12.70
2022-12-19T12:31:22.520Z,12.90
2022-12-19T12:32:03.742Z,12.80
2022-12-19T12:32:04.349Z,13.00
2022-12-19T12:35:35.102Z,13.00
2022-12-19T12:40:47.666Z,13.30
2022-12-19T12:43:38.914Z,13.70
2022-12-19T12:46:12.311Z,13.50
2022-12-19T12:48:47.813Z,13.40
2022-12-19T12:51:14.916Z,13.60
2022-12-19T12:53:44.533Z,13.30
2022-12-19T12:56:13.648Z,13.30
2022-12-19T12:58:53.730Z,13.80
2022-12-19T13:01:30.190Z,13.30
2022-12-19T13:04:07.348Z,13.50
2022-12-19T13:06:37.145Z,13.70
2022-12-19T13:09:09.787Z,13.50
2022-12-19T13:11:58.015Z,13.60
2022-12-19T13:14:43.288Z,13.70
2022-12-19T13:17:12.741Z,13.70
2022-12-19T13:19:52.772Z,13.60
2022-12-19T13:22:38.085Z,13.70
2022-12-19T13:25:26.535Z,14.00
2022-12-19T13:28:02.339Z,13.90
2022-12-19T13:30:36.205Z,14.20
2022-12-19T13:33:20.172Z,13.90
2022-12-19T13:39:46.582Z,14.00
2022-12-19T13:39:59.203Z,14.50
2022-12-19T13:42:12.683Z,14.20
2022-12-19T13:44:40.473Z,14.30
2022-12-19T13:47:07.147Z,14.60
2022-12-19T13:49:35.308Z,13.90
2022-12-19T13:52:03.107Z,14.00
2022-12-19T13:54:34.527Z,13.80
2022-12-19T13:57:03.321Z,13.80
2022-12-19T13:59:38.483Z,13.90
2022-12-19T14:02:18.328Z,13.50
2022-12-19T14:04:45.564Z,13.80
2022-12-19T14:07:41.739Z,13.60
2022-12-19T14:11:36.207Z,13.80
2022-12-19T14:13:57.124Z,14.10
2022-12-19T14:16:23.699Z,13.60
2022-12-19T14:19:27.724Z,13.60
2022-12-19T14:22:05.901Z,13.50
2022-12-19T14:24:39.786Z,13.90
2022-12-19T14:28:25.369Z,13.40
2022-12-19T14:30:29.717Z,13.40
2022-12-19T14:33:45.064Z,13.40
2022-12-19T14:36:07.557Z,13.40
2022-12-19T14:39:22.943Z,13.20
2022-12-19T14:42:01.511Z,13.60
2022-12-19T14:54:03.914Z,13.50
2022-12-19T14:54:10.682Z,13.40
2022-12-19T14:54:15.868Z,13.40
2022-12-19T14:54:51.481Z,13.70
2022-12-19T14:59:03.267Z,13.30
2022-12-19T15:01:32.660Z,13.70
2022-12-19T15:04:47.373Z,13.70
2022-12-19T15:07:08.284Z,13.50
2022-12-19T15:11:08.833Z,13.10
2022-12-19T15:14:49.150Z,13.30
2022-12-19T15:15:46.089Z,13.70
2022-12-19T15:18:40.050Z,13.60
2022-12-19T15:21:12.587Z,14.00
2022-12-19T15:23:39.299Z,14.10
2022-12-19T15:26:11.824Z,13.90
2022-12-19T15:28:41.602Z,13.90
2022-12-19T15:31:17.394Z,13.90
2022-12-19T15:34:14.417Z,14.20
2022-12-19T15:36:31.179Z,13.70
2022-12-19T15:38:58.392Z,13.90
2022-12-19T15:41:25.184Z,13.90
2022-12-19T15:44:03.823Z,13.80
2022-12-19T15:46:32.347Z,14.30
2022-12-19T15:48:59.117Z,13.80
2022-12-19T15:51:25.803Z,14.30
2022-12-19T15:53:52.505Z,13.70
2022-12-19T15:56:28.215Z,13.90
2022-12-19T15:58:56.679Z,13.70
2022-12-19T16:01:23.679Z,13.70
2022-12-19T16:03:51.149Z,13.90
2022-12-19T16:06:18.336Z,14.10
2022-12-19T16:08:45.039Z,14.10
2022-12-19T16:11:18.969Z,14.10
2022-12-19T16:13:51.024Z,13.90
2022-12-19T16:16:17.896Z,13.90
2022-12-19T16:18:45.408Z,14.50
2022-12-19T16:21:24.637Z,14.40
2022-12-19T16:23:54.464Z,13.90
2022-12-19T16:26:30.112Z,13.90
2022-12-19T16:28:57.197Z,14.00
2022-12-19T16:31:25.771Z,13.70
2022-12-19T16:33:53.069Z,13.70
2022-12-19T16:36:20.264Z,13.70
2022-12-19T16:38:47.351Z,13.60
2022-12-19T16:41:20.987Z,13.80
2022-12-19T16:43:48.279Z,13.80
2022-12-19T16:46:22.272Z,13.70
2022-12-19T16:48:49.525Z,13.50
2022-12-19T16:51:21.518Z,13.90
2022-12-19T16:53:53.515Z,13.50
2022-12-19T16:56:31.351Z,13.60
2022-12-19T16:59:01.007Z,13.40
2022-12-19T17:01:27.995Z,13.50
2022-12-19T17:03:54.818Z,13.80
2022-12-19T17:06:22.774Z,13.50
2022-12-19T17:08:49.467Z,13.80
2022-12-19T17:11:21.943Z,13.80
2022-12-19T17:13:51.502Z,13.70
2022-12-19T17:16:27.655Z,13.80
2022-12-19T17:18:57.449Z,14.10
2022-12-19T17:21:37.024Z,14.20
2022-12-19T17:24:10.607Z,14.00
2022-12-19T17:26:44.070Z,13.80
2022-12-19T17:29:22.674Z,13.70
2022-12-19T17:31:53.103Z,13.90
2022-12-19T17:34:54.885Z,13.70
2022-12-19T17:37:40.591Z,13.50
2022-12-19T17:40:26.742Z,13.40
2022-12-19T17:43:03.592Z,13.50
2022-12-19T17:45:47.029Z,13.50
2022-12-19T17:48:42.001Z,13.70
2022-12-19T17:51:13.926Z,14.10
2022-12-19T17:53:54.927Z,14.00
2022-12-19T17:56:36.438Z,13.90
2022-12-19T18:00:18.456Z,13.60
2022-12-19T18:02:46.505Z,13.70
2022-12-19T18:05:19.641Z,13.50
2022-12-19T18:07:46.474Z,13.80
2022-12-19T18:10:15.081Z,13.90
2022-12-19T18:12:41.779Z,13.90
2022-12-19T18:15:08.908Z,13.40
2022-12-19T18:17:35.688Z,13.40
2022-12-19T18:20:03.227Z,13.30
2022-12-19T18:22:29.887Z,13.40
2022-12-19T18:24:56.617Z,13.30
2022-12-19T18:27:23.276Z,13.60
2022-12-19T18:29:50.116Z,13.50
2022-12-19T18:32:19.064Z,13.40
2022-12-19T18:34:45.825Z,13.30
2022-12-19T18:37:14.976Z,13.70
2022-12-19T18:39:41.656Z,13.70
2022-12-19T18:42:26.435Z,13.80
2022-12-19T18:44:53.184Z,13.80
2022-12-19T18:47:21.946Z,13.90
2022-12-19T18:49:51.278Z,14.00
2022-12-19T18:52:18.479Z,14.10
2022-12-19T18:54:45.156Z,13.80
2022-12-19T18:57:11.873Z,13.70
2022-12-19T18:59:38.613Z,14.20
2022-12-19T19:02:23.614Z,14.30
2022-12-19T19:04:50.703Z,14.20
2022-12-19T19:07:17.359Z,14.10
2022-12-19T19:09:44.041Z,14.10
2022-12-19T19:12:10.763Z,14.20
2022-12-19T19:14:37.495Z,14.30
2022-12-19T19:17:05.191Z,14.30
2022-12-19T19:19:31.932Z,14.20
2022-12-19T19:21:58.609Z,14.00
2022-12-19T19:24:25.556Z,13.90
2022-12-19T19:26:52.265Z,13.90
2022-12-19T19:29:19.739Z,13.70
2022-12-19T19:31:47.720Z,13.90
2022-12-19T19:34:19.498Z,13.90
2022-12-19T19:36:49.383Z,13.70
2022-12-19T19:39:16.735Z,13.70
2022-12-19T19:41:43.420Z,13.90
2022-12-19T19:44:10.099Z,13.40
2022-12-19T19:46:37.439Z,13.60
2022-12-19T19:49:04.375Z,13.60
2022-12-19T19:51:31.154Z,14.10
2022-12-19T19:53:58.322Z,13.50
2022-12-19T19:56:24.989Z,13.90
2022-12-19T19:58:52.522Z,13.80
2022-12-19T20:01:19.312Z,14.10
2022-12-19T20:03:46.323Z,13.90
2022-12-19T20:06:13.143Z,13.90
2022-12-19T20:08:40.875Z,14.10
2022-12-19T20:11:09.131Z,14.30
2022-12-19T20:13:37.493Z,14.10
2022-12-19T20:16:07.101Z,13.90
2022-12-19T20:18:34.341Z,14.20
2022-12-19T20:21:01.287Z,13.90
2022-12-19T20:23:28.098Z,14.20
2022-12-19T20:25:54.947Z,14.30
2022-12-19T20:28:21.624Z,13.90
2022-12-19T20:30:48.317Z,14.10
2022-12-19T20:33:15.707Z,13.70
2022-12-19T20:35:42.854Z,13.70
2022-12-19T20:38:09.537Z,13.50
2022-12-19T20:40:36.275Z,13.50
2022-12-19T20:43:03.131Z,13.60
2022-12-19T20:45:29.819Z,13.80
2022-12-19T20:47:56.482Z,13.80
2022-12-19T20:50:23.198Z,13.90
2022-12-19T20:52:49.871Z,13.90
2022-12-19T20:55:16.618Z,14.00
2022-12-19T20:57:43.325Z,13.90
2022-12-19T21:00:10.705Z,13.90
2022-12-19T21:03:00.622Z,13.90
2022-12-19T21:05:24.137Z,14.10
2022-12-19T21:07:50.852Z,14.20
2022-12-19T21:10:17.579Z,13.80
2022-12-19T21:12:47.794Z,14.30
2022-12-19T21:15:15.411Z,13.90
2022-12-19T21:17:42.073Z,14.20
2022-12-19T21:20:09.400Z,14.00
2022-12-19T21:22:36.060Z,14.00
2022-12-19T21:25:04.265Z,13.90
2022-12-19T21:27:30.953Z,13.40
2022-12-19T21:29:57.670Z,13.60
2022-12-19T21:32:24.358Z,13.70
2022-12-19T21:34:52.638Z,13.40
2022-12-19T21:37:19.320Z,13.30
2022-12-19T21:39:46.025Z,13.60
2022-12-19T21:42:12.713Z,13.40
2022-12-19T21:44:39.396Z,13.70
2022-12-19T21:47:06.102Z,13.70
2022-12-19T21:49:32.849Z,13.70
2022-12-19T21:51:59.525Z,13.80
2022-12-19T21:54:26.196Z,13.70
2022-12-19T21:56:52.847Z,13.80
2022-12-19T21:59:19.587Z,13.80
2022-12-19T22:01:46.617Z,13.70
2022-12-19T22:04:17.611Z,13.90
2022-12-19T22:06:44.521Z,13.80
2022-12-19T22:09:13.837Z,13.80
2022-12-19T22:11:41.891Z,14.00
2022-12-19T22:14:12.238Z,13.70
2022-12-19T22:16:39.117Z,13.50
2022-12-19T22:19:06.257Z,13.50
2022-12-19T22:21:33.099Z,13.50
2022-12-19T22:24:00.984Z,13.90
2022-12-19T22:26:29.337Z,14.00
2022-12-19T22:28:57.368Z,14.00
2022-12-19T22:31:25.120Z,13.90
2022-12-19T22:33:57.149Z,13.90
2022-12-19T22:36:28.287Z,14.10
2022-12-19T22:38:56.437Z,13.70
2022-12-19T22:41:23.239Z,14.00
2022-12-19T22:43:50.589Z,13.90
2022-12-19T22:46:23.396Z,13.80
2022-12-19T22:48:50.466Z,14.00
2022-12-19T22:51:18.823Z,14.00
2022-12-19T22:53:45.973Z,14.00
2022-12-19T22:56:17.593Z,13.70
2022-12-19T22:58:46.463Z,13.90
2022-12-19T23:01:15.683Z,13.80
2022-12-19T23:03:46.539Z,13.80
2022-12-19T23:06:14.349Z,14.00
2022-12-19T23:08:41.280Z,13.70
2022-12-19T23:11:11.209Z,13.90
2022-12-19T23:13:39.187Z,13.70
2022-12-19T23:16:06.658Z,13.80
2022-12-19T23:18:33.700Z,13.70
2022-12-19T23:21:12.580Z,14.00
2022-12-19T23:23:42.387Z,14.10
2022-12-19T23:26:15.523Z,14.00
2022-12-19T23:28:55.227Z,14.00
2022-12-19T23:31:22.317Z,14.30
2022-12-19T23:33:49.573Z,13.90
2022-12-19T23:36:16.468Z,13.90
2022-12-19T23:38:44.484Z,13.80
2022-12-19T23:41:12.993Z,14.40
2022-12-19T23:43:40.206Z,14.00
2022-12-19T23:46:11.613Z,14.00
2022-12-19T23:48:38.315Z,13.90
2022-12-19T23:51:07.200Z,14.00
2022-12-19T23:53:34.966Z,13.90
2022-12-19T23:56:05.963Z,14.10
2022-12-19T23:58:33.067Z,14.40
